< < Back
Terminal Aerodrome Forecast


Current Version              Previous Versions:   1  2  3  4  5  6  7  8  9  

Terminal Aerodrome Forecast

987
FTUS42 KGSP 300528
TAFHKY
TAF
KHKY 300528Z 3006/3106 36004KT P6SM FEW250
     FM301500 35003KT P6SM SKC=

Latest METAR

525
SAUS70 KWBC 301300 RRH
MTRHKY
METAR KHKY 301253Z 00000KT 10SM CLR 07/06 A3008 RMK AO2 SLP175
T00720061


USA.gov is the U.S. government's official web portal to all federal, state and local government web resources and services.